Time;durP1;ratioP1;P1;durP2;ratioP2;P2;SDS_P1;SDS_P2;PMS_P1;PMS_P2;Temp;Humidity;BMP_temperature;BMP_pressure;BME280_temperature;BME280_humidity;BME280_pressure;Samples;Min_cycle;Max_cycle;Signal;HPM_P1;HPM_P2
2022/11/02 00:00:18;;;;;;;;;;;13.40;99.90;;;;;;5046301;28;19928;-61
2022/11/02 00:02:45;;;;;;;;;;;13.40;99.90;;;;;;5047836;28;19940;-61
2022/11/02 00:05:13;;;;;;;;;;;13.40;99.90;;;;;;5047499;28;19936;-61
2022/11/02 00:07:39;;;;;;;;;;;13.40;99.90;;;;;;5046654;28;19928;-61
2022/11/02 00:10:08;;;;;;;;;;;13.40;99.90;;;;;;5048252;28;19929;-61
2022/11/02 00:12:35;;;;;;;;;;;13.40;99.90;;;;;;5046801;28;20054;-61
2022/11/02 00:15:02;;;;;;;;;;;13.40;99.90;;;;;;5046125;28;19936;-61
2022/11/02 00:17:29;;;;;;;;;;;13.40;99.90;;;;;;5046424;28;19933;-61
2022/11/02 00:19:56;;;;;;;;;;;13.40;99.90;;;;;;5047903;28;19929;-61
2022/11/02 00:22:23;;;;;;;;;;;13.30;99.90;;;;;;5047737;28;19932;-61
2022/11/02 00:24:49;;;;;;;;;;;13.30;99.90;;;;;;5047115;28;19978;-60
2022/11/02 00:27:17;;;;;;;;;;;13.30;99.90;;;;;;5046431;28;19933;-61
2022/11/02 00:29:44;;;;;;;;;;;13.20;99.90;;;;;;5046186;28;19929;-61
2022/11/02 00:32:11;;;;;;;;;;;13.20;99.90;;;;;;5046579;28;19933;-61
2022/11/02 00:34:38;;;;;;;;;;;13.10;99.90;;;;;;5046981;28;19928;-61
2022/11/02 00:37:04;;;;;;;;;;;13.00;99.90;;;;;;5043908;28;19983;-61
2022/11/02 00:39:31;;;;;;;;;;;13.00;99.90;;;;;;5046610;28;19929;-60
2022/11/02 00:41:57;;;;;;;;;;;12.90;99.90;;;;;;5044605;28;19937;-60
2022/11/02 00:44:25;;;;;;;;;;;12.80;99.90;;;;;;5045038;28;20380;-60
2022/11/02 00:46:52;;;;;;;;;;;12.80;99.90;;;;;;5044650;28;19929;-60
2022/11/02 00:49:19;;;;;;;;;;;12.80;99.90;;;;;;5046397;28;19935;-60
2022/11/02 00:51:46;;;;;;;;;;;12.70;99.90;;;;;;5046157;28;19940;-60
2022/11/02 00:54:12;;;;;;;;;;;12.70;99.90;;;;;;5044427;28;19928;-60
2022/11/02 00:56:39;;;;;;;;;;;12.70;99.90;;;;;;5045804;28;19929;-60
2022/11/02 00:59:06;;;;;;;;;;;12.60;99.90;;;;;;5046072;28;21808;-60
2022/11/02 01:01:34;;;;;;;;;;;12.60;99.90;;;;;;5046390;28;19933;-60
2022/11/02 01:04:00;;;;;;;;;;;12.60;99.90;;;;;;5045578;28;20679;-60
2022/11/02 01:06:27;;;;;;;;;;;12.60;99.90;;;;;;5051401;28;19929;-60
2022/11/02 01:08:54;;;;;;;;;;;12.60;99.90;;;;;;5048947;28;19933;-60
2022/11/02 01:11:21;;;;;;;;;;;12.60;99.90;;;;;;5048408;28;19939;-60
2022/11/02 01:13:49;;;;;;;;;;;12.60;99.90;;;;;;5048746;28;20692;-60
2022/11/02 01:16:16;;;;;;;;;;;12.60;99.90;;;;;;5049906;28;19929;-60
2022/11/02 01:18:44;;;;;;;;;;;12.60;99.90;;;;;;5048703;28;19966;-60
2022/11/02 01:21:11;;;;;;;;;;;12.50;99.90;;;;;;5051241;28;20438;-60
2022/11/02 01:23:39;;;;;;;;;;;12.60;99.90;;;;;;5048674;28;19951;-60
2022/11/02 01:26:06;;;;;;;;;;;12.60;99.90;;;;;;5050717;28;19936;-61
2022/11/02 01:28:33;;;;;;;;;;;12.50;99.90;;;;;;5051624;28;19935;-61
2022/11/02 01:30:59;;;;;;;;;;;12.50;99.90;;;;;;5050710;28;19932;-61
2022/11/02 01:33:26;;;;;;;;;;;12.50;99.90;;;;;;5050146;28;19956;-60
2022/11/02 01:35:54;;;;;;;;;;;12.40;99.90;;;;;;5051746;28;19929;-60
2022/11/02 01:38:21;;;;;;;;;;;12.40;99.90;;;;;;5051459;28;19929;-60
2022/11/02 01:40:48;;;;;;;;;;;12.30;99.90;;;;;;5051270;28;19933;-60
2022/11/02 01:43:21;;;;;;;;;;;12.30;99.90;;;;;;5050537;28;19963;-60
2022/11/02 01:45:48;;;;;;;;;;;12.30;99.90;;;;;;5050726;28;19928;-60
2022/11/02 01:48:15;;;;;;;;;;;12.30;99.90;;;;;;5050881;28;19929;-60
2022/11/02 01:50:42;;;;;;;;;;;12.30;99.90;;;;;;5050958;28;19933;-60
2022/11/02 01:53:10;;;;;;;;;;;12.30;99.90;;;;;;5051666;28;19936;-60
2022/11/02 01:55:37;;;;;;;;;;;12.30;99.90;;;;;;5051000;28;19929;-60
2022/11/02 01:58:06;;;;;;;;;;;12.30;99.90;;;;;;5051225;28;19935;-60
2022/11/02 02:00:33;;;;;;;;;;;12.30;99.90;;;;;;5049732;28;20466;-59
2022/11/02 02:03:04;;;;;;;;;;;12.30;99.90;;;;;;5049975;28;19929;-60
2022/11/02 02:05:32;;;;;;;;;;;12.20;99.90;;;;;;5050360;28;19939;-60
2022/11/02 02:08:00;;;;;;;;;;;12.10;99.90;;;;;;5050604;28;20273;-60
2022/11/02 02:10:28;;;;;;;;;;;12.10;99.90;;;;;;5050734;28;19933;-60
2022/11/02 02:12:55;;;;;;;;;;;12.00;99.90;;;;;;5051721;28;19929;-60
2022/11/02 02:15:24;;;;;;;;;;;12.00;99.90;;;;;;5049327;28;20001;-60
2022/11/02 02:17:54;;;;;;;;;;;12.00;99.90;;;;;;5049812;28;19929;-60
2022/11/02 02:20:27;;;;;;;;;;;12.00;99.90;;;;;;5049391;28;19939;-60
2022/11/02 02:23:15;;;;;;;;;;;12.00;99.90;;;;;;5050738;28;20207;-60
2022/11/02 02:25:50;;;;;;;;;;;12.00;99.90;;;;;;5050359;28;20312;-60
2022/11/02 02:28:19;;;;;;;;;;;12.10;99.90;;;;;;5050197;28;19928;-60
2022/11/02 02:30:48;;;;;;;;;;;12.00;99.90;;;;;;5050583;28;20994;-60
2022/11/02 02:33:19;;;;;;;;;;;12.10;99.90;;;;;;5052309;28;19929;-60
2022/11/02 02:35:48;;;;;;;;;;;12.10;99.90;;;;;;5051945;28;20688;-60
2022/11/02 02:38:19;;;;;;;;;;;12.10;99.90;;;;;;5052123;28;19929;-60
2022/11/02 02:40:47;;;;;;;;;;;12.10;99.90;;;;;;5051716;28;19932;-61
2022/11/02 02:43:18;;;;;;;;;;;12.10;99.90;;;;;;5052303;28;19933;-60
2022/11/02 02:45:47;;;;;;;;;;;12.10;99.90;;;;;;5052293;28;19928;-60
2022/11/02 02:48:15;;;;;;;;;;;12.10;99.90;;;;;;5052152;28;19984;-60
2022/11/02 02:50:44;;;;;;;;;;;12.10;99.90;;;;;;5052578;28;20466;-60
2022/11/02 02:53:12;;;;;;;;;;;12.20;99.90;;;;;;5051836;28;20007;-60
2022/11/02 02:55:42;;;;;;;;;;;12.20;99.90;;;;;;5051572;28;20477;-60
2022/11/02 02:58:12;;;;;;;;;;;12.20;99.90;;;;;;5052533;28;19929;-60
2022/11/02 03:00:39;;;;;;;;;;;12.10;99.90;;;;;;5050697;28;19932;-60
2022/11/02 03:03:15;;;;;;;;;;;12.10;99.90;;;;;;5052361;28;19929;-60
2022/11/02 03:05:42;;;;;;;;;;;12.10;99.90;;;;;;5053032;28;19928;-60
2022/11/02 03:08:11;;;;;;;;;;;12.10;99.90;;;;;;5052591;28;19929;-60
2022/11/02 03:10:42;;;;;;;;;;;12.10;99.90;;;;;;5052284;28;19932;-60
2022/11/02 03:13:18;;;;;;;;;;;12.00;99.90;;;;;;5052221;28;19928;-60
2022/11/02 03:15:47;;;;;;;;;;;12.00;99.90;;;;;;5051480;28;19929;-60
2022/11/02 03:18:18;;;;;;;;;;;12.00;99.90;;;;;;5051305;28;19929;-60
2022/11/02 03:20:51;;;;;;;;;;;12.00;99.90;;;;;;5050741;28;19932;-61
2022/11/02 03:23:20;;;;;;;;;;;11.90;99.90;;;;;;5051516;28;19929;-60
2022/11/02 03:25:53;;;;;;;;;;;11.80;99.90;;;;;;5052269;28;19928;-60
2022/11/02 03:28:23;;;;;;;;;;;11.80;99.90;;;;;;5050881;28;19928;-60
2022/11/02 03:30:54;;;;;;;;;;;11.80;99.90;;;;;;5051143;28;19966;-60
2022/11/02 03:33:26;;;;;;;;;;;11.80;99.90;;;;;;5052650;28;19936;-60
2022/11/02 03:35:56;;;;;;;;;;;11.80;99.90;;;;;;5051467;28;20998;-60
2022/11/02 03:38:24;;;;;;;;;;;11.80;99.90;;;;;;5051242;28;21021;-60
2022/11/02 03:40:53;;;;;;;;;;;11.80;99.90;;;;;;5050955;28;20400;-60
2022/11/02 03:43:20;;;;;;;;;;;11.70;99.90;;;;;;5051742;28;19929;-60
2022/11/02 03:45:48;;;;;;;;;;;11.70;99.90;;;;;;5051889;28;19936;-60
2022/11/02 03:48:16;;;;;;;;;;;11.70;99.90;;;;;;5050623;28;22166;-60
2022/11/02 03:50:47;;;;;;;;;;;11.70;99.90;;;;;;5050778;28;19987;-60
2022/11/02 03:53:17;;;;;;;;;;;11.70;99.90;;;;;;5051838;28;19928;-60
2022/11/02 03:55:46;;;;;;;;;;;11.60;99.90;;;;;;5051279;28;19929;-60
2022/11/02 03:58:12;;;;;;;;;;;11.60;99.90;;;;;;5051281;28;19928;-61
2022/11/02 04:00:45;;;;;;;;;;;11.60;99.90;;;;;;5051281;28;20312;-60
2022/11/02 04:03:12;;;;;;;;;;;11.60;99.90;;;;;;5051519;28;19935;-60
2022/11/02 04:05:39;;;;;;;;;;;11.60;99.90;;;;;;5051794;28;19935;-60
2022/11/02 04:08:20;;;;;;;;;;;11.60;99.90;;;;;;5051196;28;20058;-60
2022/11/02 04:16:12;;;;;;;;;;;11.60;99.90;;;;;;5001786;28;20493;-60
2022/11/02 04:21:23;;;;;;;;;;;11.60;99.90;;;;;;5051594;28;19933;-60
2022/11/02 04:26:35;;;;;;;;;;;11.70;99.90;;;;;;5050973;28;19928;-60
2022/11/02 04:29:02;;;;;;;;;;;11.70;99.90;;;;;;5050379;28;19929;-60
2022/11/02 04:31:28;;;;;;;;;;;11.70;99.90;;;;;;5050279;28;19940;-60
2022/11/02 04:33:54;;;;;;;;;;;11.70;99.90;;;;;;5051560;28;19928;-60
2022/11/02 04:36:21;;;;;;;;;;;11.70;99.90;;;;;;5050522;28;19935;-60
2022/11/02 04:38:46;;;;;;;;;;;11.70;99.90;;;;;;5051139;28;19954;-60
2022/11/02 04:43:59;;;;;;;;;;;11.70;99.90;;;;;;5054959;28;19933;-60
2022/11/02 04:46:27;;;;;;;;;;;11.70;99.90;;;;;;5054998;28;19929;-60
2022/11/02 04:48:54;;;;;;;;;;;11.70;99.90;;;;;;5053780;28;19929;-60
2022/11/02 04:51:21;;;;;;;;;;;11.70;99.90;;;;;;5054582;28;19933;-60
2022/11/02 04:53:47;;;;;;;;;;;11.70;99.90;;;;;;5054077;28;20737;-60
2022/11/02 04:56:16;;;;;;;;;;;11.70;99.90;;;;;;5054140;28;19928;-60
2022/11/02 04:58:42;;;;;;;;;;;11.70;99.90;;;;;;5055273;28;19933;-60
2022/11/02 05:01:12;;;;;;;;;;;11.60;99.90;;;;;;5053960;28;21110;-60
2022/11/02 05:03:38;;;;;;;;;;;11.60;99.90;;;;;;5053750;28;19935;-60
2022/11/02 05:06:05;;;;;;;;;;;11.60;99.90;;;;;;5054244;28;19928;-60
2022/11/02 05:08:32;;;;;;;;;;;11.60;99.90;;;;;;5054801;28;19935;-61
2022/11/02 05:10:59;;;;;;;;;;;11.60;99.90;;;;;;5053773;28;19933;-60
2022/11/02 05:13:27;;;;;;;;;;;11.60;99.90;;;;;;5054614;28;19928;-60
2022/11/02 05:15:55;;;;;;;;;;;11.70;99.90;;;;;;5052537;28;19928;-60
2022/11/02 05:18:22;;;;;;;;;;;11.70;99.90;;;;;;5054286;28;19929;-61
2022/11/02 05:20:52;;;;;;;;;;;11.70;99.90;;;;;;5050979;28;20703;-60
2022/11/02 05:23:19;;;;;;;;;;;11.70;99.90;;;;;;5052335;28;19928;-60
2022/11/02 05:25:52;;;;;;;;;;;11.70;99.90;;;;;;5051703;28;19929;-61
2022/11/02 05:28:18;;;;;;;;;;;11.60;99.90;;;;;;5051828;28;19938;-61
2022/11/02 05:30:46;;;;;;;;;;;11.60;99.90;;;;;;5052116;28;19933;-61
2022/11/02 05:33:13;;;;;;;;;;;11.60;99.90;;;;;;5052839;28;19935;-60
2022/11/02 05:35:40;;;;;;;;;;;11.60;99.90;;;;;;5051164;28;20410;-60
2022/11/02 05:38:06;;;;;;;;;;;11.60;99.90;;;;;;5051812;28;20023;-61
2022/11/02 05:40:36;;;;;;;;;;;11.60;99.90;;;;;;5049653;28;20009;-61
2022/11/02 05:43:03;;;;;;;;;;;11.60;99.90;;;;;;5051327;28;20011;-60
2022/11/02 05:45:30;;;;;;;;;;;11.60;99.90;;;;;;5050928;28;20482;-61
2022/11/02 05:47:59;;;;;;;;;;;11.60;99.90;;;;;;5052166;28;19935;-61
2022/11/02 05:50:26;;;;;;;;;;;11.60;99.90;;;;;;5050362;28;20521;-60
2022/11/02 05:52:52;;;;;;;;;;;11.60;99.90;;;;;;5052255;28;19928;-61
2022/11/02 05:55:19;;;;;;;;;;;11.60;99.90;;;;;;5050687;28;19929;-61
2022/11/02 05:57:49;;;;;;;;;;;11.60;99.90;;;;;;5052136;28;20002;-61
2022/11/02 06:00:16;;;;;;;;;;;11.60;99.90;;;;;;5051091;28;20177;-61
2022/11/02 06:02:43;;;;;;;;;;;11.60;99.90;;;;;;5051386;28;19935;-61
2022/11/02 06:05:11;;;;;;;;;;;11.70;99.90;;;;;;5052714;28;19951;-61
2022/11/02 06:07:38;;;;;;;;;;;11.70;99.90;;;;;;5051218;28;19929;-61
2022/11/02 06:10:05;;;;;;;;;;;11.60;99.90;;;;;;5048619;28;19933;-61
2022/11/02 06:12:32;;;;;;;;;;;11.60;99.90;;;;;;5050976;28;19928;-61
2022/11/02 06:14:58;;;;;;;;;;;11.60;99.90;;;;;;5050953;28;20062;-61
2022/11/02 06:17:25;;;;;;;;;;;11.60;99.90;;;;;;5050582;28;19936;-61
2022/11/02 06:19:52;;;;;;;;;;;11.60;99.90;;;;;;5046982;28;19944;-61
2022/11/02 06:22:20;;;;;;;;;;;11.60;99.90;;;;;;5049246;28;19935;-61
2022/11/02 06:24:46;;;;;;;;;;;11.60;99.90;;;;;;5048698;28;20001;-61
2022/11/02 06:27:13;;;;;;;;;;;11.60;99.90;;;;;;5050156;28;19928;-61
2022/11/02 06:29:40;;;;;;;;;;;11.60;99.90;;;;;;5048982;28;19940;-61
2022/11/02 06:32:06;;;;;;;;;;;11.60;99.90;;;;;;5049344;28;19928;-60
2022/11/02 06:34:33;;;;;;;;;;;11.60;99.90;;;;;;5046930;28;19944;-61
2022/11/02 06:37:00;;;;;;;;;;;11.60;99.90;;;;;;5047966;28;19929;-61
2022/11/02 06:39:28;;;;;;;;;;;11.60;99.90;;;;;;5048186;28;20053;-62
2022/11/02 06:41:54;;;;;;;;;;;11.70;99.90;;;;;;5048823;28;20031;-61
2022/11/02 06:44:21;;;;;;;;;;;11.70;99.90;;;;;;5049823;28;20652;-61
2022/11/02 06:46:47;;;;;;;;;;;11.80;99.90;;;;;;5049999;28;19935;-60
2022/11/02 06:49:14;;;;;;;;;;;11.80;99.90;;;;;;5048520;28;19932;-61
2022/11/02 06:51:41;;;;;;;;;;;11.80;99.90;;;;;;5050135;28;19939;-60
2022/11/02 06:54:08;;;;;;;;;;;11.80;99.90;;;;;;5051780;28;20019;-57
2022/11/02 06:56:36;;;;;;;;;;;11.80;99.90;;;;;;5050345;28;19933;-57
2022/11/02 06:59:02;;;;;;;;;;;11.80;99.90;;;;;;5051580;28;19933;-57
2022/11/02 07:01:29;;;;;;;;;;;11.90;99.90;;;;;;5050896;28;19929;-57
2022/11/02 07:03:55;;;;;;;;;;;11.80;99.90;;;;;;5052621;28;19928;-57
2022/11/02 07:06:22;;;;;;;;;;;11.90;99.90;;;;;;5052029;28;19932;-57
2022/11/02 07:08:49;;;;;;;;;;;11.90;99.90;;;;;;5052477;28;19947;-57
2022/11/02 07:11:15;;;;;;;;;;;12.00;99.90;;;;;;5052452;28;19928;-57
2022/11/02 07:13:44;;;;;;;;;;;12.00;99.90;;;;;;5049454;28;20544;-57
2022/11/02 07:16:10;;;;;;;;;;;12.00;99.90;;;;;;5049382;28;20432;-57
2022/11/02 07:18:37;;;;;;;;;;;12.00;99.90;;;;;;5049390;28;19933;-57
2022/11/02 07:21:04;;;;;;;;;;;12.00;99.90;;;;;;5048421;28;19929;-57
2022/11/02 07:23:31;;;;;;;;;;;12.00;99.90;;;;;;5047270;28;20382;-57
2022/11/02 07:25:57;;;;;;;;;;;12.00;99.90;;;;;;5048455;28;19929;-57
2022/11/02 07:28:24;;;;;;;;;;;12.00;99.90;;;;;;5048604;28;20243;-57
2022/11/02 07:30:53;;;;;;;;;;;12.00;99.90;;;;;;5049415;28;19928;-57
2022/11/02 07:33:20;;;;;;;;;;;12.00;99.90;;;;;;5049832;28;19928;-57
2022/11/02 07:35:47;;;;;;;;;;;12.00;99.90;;;;;;5048314;28;21573;-57
2022/11/02 07:38:13;;;;;;;;;;;12.00;99.90;;;;;;5050534;28;19933;-57
2022/11/02 07:40:40;;;;;;;;;;;12.00;99.90;;;;;;5049490;28;19929;-57
2022/11/02 07:43:07;;;;;;;;;;;11.90;99.90;;;;;;5051595;28;20031;-57
2022/11/02 07:45:34;;;;;;;;;;;11.90;99.90;;;;;;5050293;28;19929;-57
2022/11/02 07:48:02;;;;;;;;;;;11.80;99.90;;;;;;5052588;28;20070;-58
2022/11/02 07:50:28;;;;;;;;;;;11.80;99.90;;;;;;5050480;28;20978;-57
2022/11/02 07:52:56;;;;;;;;;;;11.80;99.90;;;;;;5052295;28;19929;-57
2022/11/02 07:55:23;;;;;;;;;;;11.70;99.90;;;;;;5051758;28;19933;-57
2022/11/02 07:57:53;;;;;;;;;;;11.70;99.90;;;;;;5052284;28;19933;-57
2022/11/02 08:00:20;;;;;;;;;;;11.70;99.90;;;;;;5052092;28;19929;-57
2022/11/02 08:02:47;;;;;;;;;;;11.70;99.90;;;;;;5052565;28;19982;-57
2022/11/02 08:05:15;;;;;;;;;;;11.70;99.90;;;;;;5050884;28;19929;-57
2022/11/02 08:07:42;;;;;;;;;;;11.70;99.90;;;;;;5053005;28;19933;-57
2022/11/02 08:10:09;;;;;;;;;;;11.70;99.90;;;;;;5051358;28;19943;-57
2022/11/02 08:12:35;;;;;;;;;;;11.70;99.90;;;;;;5047740;28;19935;-57
2022/11/02 08:15:02;;;;;;;;;;;11.80;99.90;;;;;;5051309;28;19929;-57
2022/11/02 08:17:29;;;;;;;;;;;11.90;99.90;;;;;;5052015;28;19933;-57
2022/11/02 08:19:55;;;;;;;;;;;11.90;99.90;;;;;;5051596;28;19929;-57
2022/11/02 08:22:23;;;;;;;;;;;12.00;99.90;;;;;;5051022;28;20526;-57
2022/11/02 08:24:50;;;;;;;;;;;12.10;99.90;;;;;;5051195;28;19932;-57
2022/11/02 08:27:17;;;;;;;;;;;12.20;99.90;;;;;;5051171;28;21028;-57
2022/11/02 08:29:43;;;;;;;;;;;12.20;99.90;;;;;;5048949;28;20415;-57
2022/11/02 08:32:10;;;;;;;;;;;12.20;99.90;;;;;;5042721;28;20432;-57
2022/11/02 08:34:36;;;;;;;;;;;12.30;99.90;;;;;;5051057;28;20420;-61
2022/11/02 08:37:03;;;;;;;;;;;12.30;99.90;;;;;;5049384;28;19939;-61
2022/11/02 08:39:31;;;;;;;;;;;12.30;99.90;;;;;;5051163;28;19936;-61
2022/11/02 08:41:58;;;;;;;;;;;12.30;99.90;;;;;;5049221;28;19929;-61
2022/11/02 08:44:24;;;;;;;;;;;12.40;99.90;;;;;;5048617;28;19935;-61
2022/11/02 08:46:51;;;;;;;;;;;12.40;99.90;;;;;;5047793;28;19932;-57
2022/11/02 08:49:19;;;;;;;;;;;12.50;99.90;;;;;;5048269;28;19929;-57
2022/11/02 08:51:45;;;;;;;;;;;12.50;99.90;;;;;;5048787;28;19963;-61
2022/11/02 08:54:12;;;;;;;;;;;12.60;99.90;;;;;;5050242;28;19928;-57
2022/11/02 08:56:40;;;;;;;;;;;12.70;99.90;;;;;;5048648;28;19933;-61
2022/11/02 08:59:08;;;;;;;;;;;12.70;99.90;;;;;;5049079;28;20465;-57
2022/11/02 09:01:35;;;;;;;;;;;12.80;99.90;;;;;;5049371;28;19928;-61
2022/11/02 09:04:01;;;;;;;;;;;12.90;99.90;;;;;;5046303;28;20275;-61
2022/11/02 09:06:28;;;;;;;;;;;12.90;99.90;;;;;;5050521;28;20164;-57
2022/11/02 09:08:55;;;;;;;;;;;13.00;99.90;;;;;;5048253;28;19936;-61
2022/11/02 09:11:21;;;;;;;;;;;13.10;99.90;;;;;;5048338;28;21023;-61
2022/11/02 09:13:49;;;;;;;;;;;13.10;99.90;;;;;;5046916;28;20753;-61
2022/11/02 09:16:16;;;;;;;;;;;13.10;99.90;;;;;;5045351;28;20487;-61
2022/11/02 09:18:42;;;;;;;;;;;13.20;99.90;;;;;;5045261;28;19947;-61
2022/11/02 09:21:09;;;;;;;;;;;13.20;99.90;;;;;;5048222;28;19929;-61
2022/11/02 09:23:36;;;;;;;;;;;13.30;99.90;;;;;;5046213;28;19928;-61
2022/11/02 09:26:02;;;;;;;;;;;13.40;99.90;;;;;;5046454;28;19939;-61
2022/11/02 09:28:29;;;;;;;;;;;13.40;99.90;;;;;;5049503;28;19936;-61
2022/11/02 09:30:58;;;;;;;;;;;13.40;99.90;;;;;;5047100;28;20158;-61
2022/11/02 09:33:24;;;;;;;;;;;13.50;99.90;;;;;;5049323;28;19940;-61
2022/11/02 09:35:51;;;;;;;;;;;13.60;99.90;;;;;;5049546;28;19932;-61
2022/11/02 09:38:18;;;;;;;;;;;13.60;99.90;;;;;;5010559;28;19929;-61
2022/11/02 09:40:45;;;;;;;;;;;13.70;99.90;;;;;;5007235;28;19930;-61
2022/11/02 09:43:18;;;;;;;;;;;13.90;99.90;;;;;;5010809;28;19957;-61
2022/11/02 09:45:51;;;;;;;;;;;13.90;99.90;;;;;;5009109;28;19933;-61
2022/11/02 09:48:21;;;;;;;;;;;14.00;99.90;;;;;;5010117;28;19988;-61
2022/11/02 09:50:49;;;;;;;;;;;14.00;99.90;;;;;;5010518;28;19929;-61
2022/11/02 09:53:19;;;;;;;;;;;14.00;99.90;;;;;;5007573;28;20128;-61
2022/11/02 09:55:49;;;;;;;;;;;14.10;99.90;;;;;;5010103;28;20513;-61
2022/11/02 09:58:18;;;;;;;;;;;14.00;99.90;;;;;;5009763;28;19937;-61
2022/11/02 10:00:47;;;;;;;;;;;13.90;99.90;;;;;;5009426;28;19934;-61
2022/11/02 10:03:20;;;;;;;;;;;13.90;99.90;;;;;;5009411;28;20366;-57
2022/11/02 10:05:53;;;;;;;;;;;13.80;99.90;;;;;;5011484;28;20033;-61
2022/11/02 10:08:25;;;;;;;;;;;13.80;99.90;;;;;;5009774;28;20088;-61
2022/11/02 10:11:00;;;;;;;;;;;13.80;99.90;;;;;;5008810;28;19936;-61
2022/11/02 10:13:32;;;;;;;;;;;13.70;99.90;;;;;;5009998;28;19935;-57
2022/11/02 10:16:00;;;;;;;;;;;13.70;99.90;;;;;;5007254;28;19933;-57
2022/11/02 10:18:28;;;;;;;;;;;13.50;99.90;;;;;;5012095;28;19936;-57
2022/11/02 10:20:58;;;;;;;;;;;13.50;99.90;;;;;;5001194;28;21524;-57
2022/11/02 10:23:28;;;;;;;;;;;13.40;99.90;;;;;;5003860;28;20826;-57
2022/11/02 10:25:55;;;;;;;;;;;13.30;99.90;;;;;;5005418;28;19939;-57
2022/11/02 10:28:25;;;;;;;;;;;13.20;99.90;;;;;;5007007;28;19930;-57
2022/11/02 10:30:52;;;;;;;;;;;13.10;99.90;;;;;;5007025;28;19933;-57
2022/11/02 10:33:22;;;;;;;;;;;13.20;99.90;;;;;;5006093;28;19929;-57
2022/11/02 10:35:53;;;;;;;;;;;13.20;99.90;;;;;;5007000;28;19987;-57
2022/11/02 10:38:27;;;;;;;;;;;13.20;99.90;;;;;;5005627;28;19951;-57
2022/11/02 10:41:05;;;;;;;;;;;13.30;99.90;;;;;;5004614;28;20728;-57
2022/11/02 10:43:38;;;;;;;;;;;13.30;99.90;;;;;;5005464;28;20024;-57
2022/11/02 10:46:13;;;;;;;;;;;13.30;99.90;;;;;;5006759;28;19940;-57
2022/11/02 10:48:43;;;;;;;;;;;13.30;99.90;;;;;;5006035;28;19930;-57
2022/11/02 10:51:11;;;;;;;;;;;13.40;99.90;;;;;;5004982;28;20915;-57
2022/11/02 10:53:40;;;;;;;;;;;13.50;99.90;;;;;;5005618;28;19929;-57
2022/11/02 10:56:10;;;;;;;;;;;13.60;99.90;;;;;;5006135;28;20003;-57
2022/11/02 10:58:40;;;;;;;;;;;13.70;99.90;;;;;;5007328;28;19930;-57
2022/11/02 11:01:08;;;;;;;;;;;13.90;99.90;;;;;;5009354;28;19936;-57
2022/11/02 11:03:38;;;;;;;;;;;13.90;99.90;;;;;;5001950;28;20015;-57
2022/11/02 11:06:05;;;;;;;;;;;14.00;99.90;;;;;;5008299;28;20396;-57
2022/11/02 11:08:35;;;;;;;;;;;14.00;99.80;;;;;;5007459;28;19936;-57
2022/11/02 11:11:18;;;;;;;;;;;14.00;99.90;;;;;;5009757;28;19929;-57
2022/11/02 11:13:46;;;;;;;;;;;13.90;99.30;;;;;;5008808;28;19929;-57
2022/11/02 11:16:13;;;;;;;;;;;13.90;99.80;;;;;;5008733;28;22032;-57
2022/11/02 11:18:39;;;;;;;;;;;13.80;99.90;;;;;;5004879;28;20407;-57
2022/11/02 11:21:06;;;;;;;;;;;13.90;99.90;;;;;;5007103;28;19929;-57
2022/11/02 11:23:33;;;;;;;;;;;13.90;99.90;;;;;;5006727;28;19930;-57
2022/11/02 11:26:01;;;;;;;;;;;14.10;99.90;;;;;;5005900;28;19939;-57
2022/11/02 11:28:30;;;;;;;;;;;14.20;99.90;;;;;;5007133;28;19936;-57
2022/11/02 11:31:10;;;;;;;;;;;14.40;99.90;;;;;;5006846;28;19928;-57
2022/11/02 11:33:44;;;;;;;;;;;14.60;99.90;;;;;;5005378;28;19972;-57
2022/11/02 11:36:19;;;;;;;;;;;14.80;99.90;;;;;;5007798;28;19933;-56
2022/11/02 11:38:46;;;;;;;;;;;14.90;99.50;;;;;;5045045;28;19928;-57
2022/11/02 11:41:13;;;;;;;;;;;15.00;99.80;;;;;;5046114;28;20035;-57
2022/11/02 11:43:41;;;;;;;;;;;15.10;98.70;;;;;;5046243;28;20089;-57
2022/11/02 11:46:08;;;;;;;;;;;15.10;98.40;;;;;;5047803;28;19940;-57
2022/11/02 11:48:37;;;;;;;;;;;15.10;98.00;;;;;;5045631;28;19929;-57
2022/11/02 11:51:04;;;;;;;;;;;15.20;98.80;;;;;;5045722;28;19936;-57
2022/11/02 11:53:31;;;;;;;;;;;15.20;96.40;;;;;;5045185;28;19935;-57
2022/11/02 11:55:58;;;;;;;;;;;15.30;97.70;;;;;;5045122;28;20517;-57
2022/11/02 11:58:26;;;;;;;;;;;15.30;96.80;;;;;;5046075;28;20049;-57
2022/11/02 12:01:04;;;;;;;;;;;15.40;96.40;;;;;;5047027;28;19933;-57
2022/11/02 12:03:31;;;;;;;;;;;15.30;95.30;;;;;;5043224;28;19952;-57
2022/11/02 12:06:02;;;;;;;;;;;15.20;95.00;;;;;;5045181;28;19933;-57
2022/11/02 12:08:35;;;;;;;;;;;15.20;95.30;;;;;;5045211;28;19929;-57
2022/11/02 12:11:12;;;;;;;;;;;15.10;94.80;;;;;;5045071;28;20134;-57
2022/11/02 12:13:46;;;;;;;;;;;15.00;95.20;;;;;;5044974;28;20484;-57
2022/11/02 12:16:19;;;;;;;;;;;15.00;95.80;;;;;;5045518;28;19939;-57
2022/11/02 12:18:56;;;;;;;;;;;15.00;95.10;;;;;;5044233;28;19929;-57
2022/11/02 12:21:31;;;;;;;;;;;14.90;95.70;;;;;;5045008;28;19929;-57
2022/11/02 12:24:04;;;;;;;;;;;14.90;96.10;;;;;;5041409;28;19978;-57
2022/11/02 12:26:37;;;;;;;;;;;14.80;96.30;;;;;;5044336;28;19939;-57
2022/11/02 12:29:11;;;;;;;;;;;14.80;97.00;;;;;;5045191;28;19928;-57
2022/11/02 12:31:40;;;;;;;;;;;14.80;96.80;;;;;;5039061;28;20572;-57
2022/11/02 12:34:18;;;;;;;;;;;14.70;97.20;;;;;;5039669;28;20392;-57
2022/11/02 12:36:52;;;;;;;;;;;14.80;97.60;;;;;;5041883;28;19943;-57
2022/11/02 12:39:22;;;;;;;;;;;14.70;97.20;;;;;;5042503;28;20238;-57
2022/11/02 12:42:03;;;;;;;;;;;14.70;97.40;;;;;;5045815;28;20013;-57
2022/11/02 12:44:45;;;;;;;;;;;14.60;97.60;;;;;;5038485;28;19928;-57
2022/11/02 12:47:21;;;;;;;;;;;14.60;96.50;;;;;;5043771;28;20577;-57
2022/11/02 12:49:50;;;;;;;;;;;14.40;96.30;;;;;;5043360;28;20432;-57
2022/11/02 12:52:24;;;;;;;;;;;14.40;97.10;;;;;;5042954;28;19928;-61
2022/11/02 12:54:52;;;;;;;;;;;14.30;96.90;;;;;;5044041;28;19928;-61
2022/11/02 12:57:23;;;;;;;;;;;14.30;97.50;;;;;;5048100;28;20524;-57
2022/11/02 12:59:53;;;;;;;;;;;14.30;97.70;;;;;;5050535;28;20404;-57
2022/11/02 13:02:25;;;;;;;;;;;14.30;97.60;;;;;;5050046;28;20379;-57
2022/11/02 13:04:54;;;;;;;;;;;14.30;98.00;;;;;;5050592;28;20394;-56
2022/11/02 13:07:23;;;;;;;;;;;14.40;98.40;;;;;;5051927;28;19933;-60
2022/11/02 13:09:53;;;;;;;;;;;14.40;98.00;;;;;;5050102;28;19932;-61
2022/11/02 13:12:21;;;;;;;;;;;14.30;98.40;;;;;;5050520;28;20097;-62
2022/11/02 13:14:49;;;;;;;;;;;14.30;97.40;;;;;;5051813;28;20416;-61
2022/11/02 13:17:20;;;;;;;;;;;14.30;98.20;;;;;;5050147;28;20209;-61
2022/11/02 13:19:51;;;;;;;;;;;14.30;98.70;;;;;;5051083;28;20016;-62
2022/11/02 13:22:19;;;;;;;;;;;14.30;98.40;;;;;;5052317;28;19928;-61
2022/11/02 13:24:48;;;;;;;;;;;14.30;98.20;;;;;;5049588;28;19934;-57
2022/11/02 13:27:25;;;;;;;;;;;14.30;98.10;;;;;;5051557;28;19955;-57
2022/11/02 13:29:56;;;;;;;;;;;14.30;98.40;;;;;;5050921;28;19928;-61
2022/11/02 13:32:26;;;;;;;;;;;14.30;98.20;;;;;;5048616;28;20269;-57
2022/11/02 13:34:54;;;;;;;;;;;14.20;98.20;;;;;;5050376;28;19939;-57
2022/11/02 13:37:24;;;;;;;;;;;14.20;98.60;;;;;;5050043;28;20922;-57
2022/11/02 13:39:52;;;;;;;;;;;14.20;98.90;;;;;;5051524;28;20152;-57
2022/11/02 13:42:26;;;;;;;;;;;14.20;98.80;;;;;;5050399;28;20067;-57
2022/11/02 13:45:02;;;;;;;;;;;14.20;99.10;;;;;;5052646;28;19933;-57
2022/11/02 13:47:43;;;;;;;;;;;14.10;98.50;;;;;;5052840;28;19932;-57
2022/11/02 13:50:12;;;;;;;;;;;14.10;99.00;;;;;;5052642;28;19928;-57
2022/11/02 13:52:40;;;;;;;;;;;14.10;99.00;;;;;;5052146;28;20402;-58
2022/11/02 13:55:09;;;;;;;;;;;14.10;98.90;;;;;;5052674;28;19936;-57
2022/11/02 13:57:38;;;;;;;;;;;14.00;98.90;;;;;;5054501;28;20662;-57
2022/11/02 14:00:07;;;;;;;;;;;14.00;99.00;;;;;;5053543;28;20024;-61
2022/11/02 14:02:35;;;;;;;;;;;14.10;99.00;;;;;;5054256;28;19929;-57
2022/11/02 14:05:01;;;;;;;;;;;14.00;99.00;;;;;;5053560;28;20456;-61
2022/11/02 14:07:32;;;;;;;;;;;14.00;99.20;;;;;;5053383;28;19932;-61
2022/11/02 14:10:01;;;;;;;;;;;14.00;99.20;;;;;;5053359;28;19928;-57
2022/11/02 14:12:43;;;;;;;;;;;14.00;99.30;;;;;;5053976;28;20397;-57
2022/11/02 14:15:28;;;;;;;;;;;14.00;99.40;;;;;;5051706;28;19928;-61
2022/11/02 14:18:02;;;;;;;;;;;14.00;99.00;;;;;;5051843;28;20074;-57
2022/11/02 14:20:32;;;;;;;;;;;14.00;98.50;;;;;;5053164;28;19928;-57
2022/11/02 14:23:30;;;;;;;;;;;14.00;99.00;;;;;;5045268;28;19929;-61
2022/11/02 14:25:58;;;;;;;;;;;14.00;99.10;;;;;;4958773;28;21788;-62
2022/11/02 14:28:31;;;;;;;;;;;13.90;99.10;;;;;;5027256;28;19943;-57
2022/11/02 14:31:00;;;;;;;;;;;14.00;99.50;;;;;;5049048;28;20361;-57
2022/11/02 14:33:43;;;;;;;;;;;14.00;99.40;;;;;;5050431;28;20395;-61
2022/11/02 14:36:18;;;;;;;;;;;14.00;99.30;;;;;;5051521;28;19929;-57
2022/11/02 14:38:59;;;;;;;;;;;14.00;99.60;;;;;;5051327;28;20012;-57